sensor_id;sensor_type;location;lat;lon;timestamp;temperature;humidity
47626;DHT22;33342;45.574;9.252;2023-04-03T00:01:19;15.60;99.90
47626;DHT22;33342;45.574;9.252;2023-04-03T00:03:47;15.60;99.90
47626;DHT22;33342;45.574;9.252;2023-04-03T00:06:14;15.60;99.90
47626;DHT22;33342;45.574;9.252;2023-04-03T00:08:41;15.50;99.90
47626;DHT22;33342;45.574;9.252;2023-04-03T00:11:09;15.50;99.90
47626;DHT22;33342;45.574;9.252;2023-04-03T00:13:38;15.50;99.90
47626;DHT22;33342;45.574;9.252;2023-04-03T00:16:06;15.50;99.90
47626;DHT22;33342;45.574;9.252;2023-04-03T00:18:34;15.40;99.90
47626;DHT22;33342;45.574;9.252;2023-04-03T00:21:01;15.40;99.90
47626;DHT22;33342;45.574;9.252;2023-04-03T00:23:28;15.40;99.90
47626;DHT22;33342;45.574;9.252;2023-04-03T00:25:55;15.30;99.90
47626;DHT22;33342;45.574;9.252;2023-04-03T00:28:23;15.30;99.90
47626;DHT22;33342;45.574;9.252;2023-04-03T00:30:50;15.30;99.90
47626;DHT22;33342;45.574;9.252;2023-04-03T00:33:18;15.30;99.90
47626;DHT22;33342;45.574;9.252;2023-04-03T00:35:49;15.30;99.90
47626;DHT22;33342;45.574;9.252;2023-04-03T00:38:17;15.30;99.90
47626;DHT22;33342;45.574;9.252;2023-04-03T00:40:46;15.30;99.90
47626;DHT22;33342;45.574;9.252;2023-04-03T00:43:22;15.30;99.90
47626;DHT22;33342;45.574;9.252;2023-04-03T00:45:52;15.20;99.90
47626;DHT22;33342;45.574;9.252;2023-04-03T00:48:28;15.20;99.90
47626;DHT22;33342;45.574;9.252;2023-04-03T00:50:57;15.20;99.90
47626;DHT22;33342;45.574;9.252;2023-04-03T00:53:39;15.20;99.90
47626;DHT22;33342;45.574;9.252;2023-04-03T00:56:09;15.20;99.90
47626;DHT22;33342;45.574;9.252;2023-04-03T00:58:41;15.20;99.90
47626;DHT22;33342;45.574;9.252;2023-04-03T01:01:13;15.20;99.90
47626;DHT22;33342;45.574;9.252;2023-04-03T01:03:41;15.20;99.90
47626;DHT22;33342;45.574;9.252;2023-04-03T01:06:09;15.10;99.90
47626;DHT22;33342;45.574;9.252;2023-04-03T01:08:36;15.10;99.90
47626;DHT22;33342;45.574;9.252;2023-04-03T01:11:03;15.10;99.90
47626;DHT22;33342;45.574;9.252;2023-04-03T01:13:32;15.10;99.90
47626;DHT22;33342;45.574;9.252;2023-04-03T01:16:04;15.10;99.90
47626;DHT22;33342;45.574;9.252;2023-04-03T01:18:33;15.10;99.90
47626;DHT22;33342;45.574;9.252;2023-04-03T01:26:48;15.00;99.90
47626;DHT22;33342;45.574;9.252;2023-04-03T01:29:15;15.00;99.90
47626;DHT22;33342;45.574;9.252;2023-04-03T01:31:52;14.90;99.90
47626;DHT22;33342;45.574;9.252;2023-04-03T01:34:20;14.90;99.90
47626;DHT22;33342;45.574;9.252;2023-04-03T01:36:48;14.90;99.90
47626;DHT22;33342;45.574;9.252;2023-04-03T01:39:15;14.90;99.90
47626;DHT22;33342;45.574;9.252;2023-04-03T01:41:43;14.90;99.90
47626;DHT22;33342;45.574;9.252;2023-04-03T01:44:15;14.90;99.90
47626;DHT22;33342;45.574;9.252;2023-04-03T01:46:42;14.90;99.90
47626;DHT22;33342;45.574;9.252;2023-04-03T01:49:09;14.80;99.90
47626;DHT22;33342;45.574;9.252;2023-04-03T01:51:36;14.80;99.90
47626;DHT22;33342;45.574;9.252;2023-04-03T01:54:04;14.80;99.90
47626;DHT22;33342;45.574;9.252;2023-04-03T01:56:31;14.80;99.90
47626;DHT22;33342;45.574;9.252;2023-04-03T01:58:58;14.80;99.90
47626;DHT22;33342;45.574;9.252;2023-04-03T02:01:25;14.70;99.90
47626;DHT22;33342;45.574;9.252;2023-04-03T02:03:53;14.60;99.90
47626;DHT22;33342;45.574;9.252;2023-04-03T02:06:20;14.50;99.90
47626;DHT22;33342;45.574;9.252;2023-04-03T02:08:47;14.40;99.90
47626;DHT22;33342;45.574;9.252;2023-04-03T02:11:14;14.40;99.90
47626;DHT22;33342;45.574;9.252;2023-04-03T02:13:41;14.40;99.90
47626;DHT22;33342;45.574;9.252;2023-04-03T02:16:09;14.30;99.90
47626;DHT22;33342;45.574;9.252;2023-04-03T02:18:37;14.20;99.90
47626;DHT22;33342;45.574;9.252;2023-04-03T02:21:04;14.10;99.90
47626;DHT22;33342;45.574;9.252;2023-04-03T02:23:31;14.10;99.90
47626;DHT22;33342;45.574;9.252;2023-04-03T02:26:25;14.00;99.90
47626;DHT22;33342;45.574;9.252;2023-04-03T02:28:52;13.90;99.90
47626;DHT22;33342;45.574;9.252;2023-04-03T02:31:19;13.90;99.90
47626;DHT22;33342;45.574;9.252;2023-04-03T02:33:48;13.90;99.90
47626;DHT22;33342;45.574;9.252;2023-04-03T02:36:16;14.00;99.90
47626;DHT22;33342;45.574;9.252;2023-04-03T02:38:48;14.00;99.90
47626;DHT22;33342;45.574;9.252;2023-04-03T02:41:15;14.00;99.90
47626;DHT22;33342;45.574;9.252;2023-04-03T02:43:42;14.00;99.90
47626;DHT22;33342;45.574;9.252;2023-04-03T02:46:09;14.00;99.90
47626;DHT22;33342;45.574;9.252;2023-04-03T02:48:36;14.10;99.90
47626;DHT22;33342;45.574;9.252;2023-04-03T02:51:04;14.10;99.90
47626;DHT22;33342;45.574;9.252;2023-04-03T02:53:31;14.00;99.90
47626;DHT22;33342;45.574;9.252;2023-04-03T02:56:03;13.90;99.90
47626;DHT22;33342;45.574;9.252;2023-04-03T02:58:30;13.90;99.90
47626;DHT22;33342;45.574;9.252;2023-04-03T03:00:58;13.80;99.90
47626;DHT22;33342;45.574;9.252;2023-04-03T03:03:26;13.80;99.90
47626;DHT22;33342;45.574;9.252;2023-04-03T03:06:08;13.80;99.90
47626;DHT22;33342;45.574;9.252;2023-04-03T03:08:36;13.70;99.90
47626;DHT22;33342;45.574;9.252;2023-04-03T03:11:04;13.60;99.90
47626;DHT22;33342;45.574;9.252;2023-04-03T03:13:32;13.60;99.90
47626;DHT22;33342;45.574;9.252;2023-04-03T03:16:00;13.50;99.90
47626;DHT22;33342;45.574;9.252;2023-04-03T03:18:27;13.50;99.90
47626;DHT22;33342;45.574;9.252;2023-04-03T03:20:59;13.40;99.90
47626;DHT22;33342;45.574;9.252;2023-04-03T03:23:27;13.50;99.90
47626;DHT22;33342;45.574;9.252;2023-04-03T03:26:00;13.50;99.90
47626;DHT22;33342;45.574;9.252;2023-04-03T03:28:28;13.40;99.90
47626;DHT22;33342;45.574;9.252;2023-04-03T03:30:54;13.40;99.90
47626;DHT22;33342;45.574;9.252;2023-04-03T03:33:22;13.40;99.90
47626;DHT22;33342;45.574;9.252;2023-04-03T03:35:49;13.30;99.90
47626;DHT22;33342;45.574;9.252;2023-04-03T03:38:17;13.30;99.90
47626;DHT22;33342;45.574;9.252;2023-04-03T03:40:44;13.40;99.90
47626;DHT22;33342;45.574;9.252;2023-04-03T03:43:11;13.40;99.90
47626;DHT22;33342;45.574;9.252;2023-04-03T03:45:38;13.50;99.90
47626;DHT22;33342;45.574;9.252;2023-04-03T03:48:05;13.50;99.90
47626;DHT22;33342;45.574;9.252;2023-04-03T03:50:33;13.50;99.90
47626;DHT22;33342;45.574;9.252;2023-04-03T03:53:00;13.60;99.90
47626;DHT22;33342;45.574;9.252;2023-04-03T03:55:27;13.60;99.90
47626;DHT22;33342;45.574;9.252;2023-04-03T03:57:56;13.60;99.90
47626;DHT22;33342;45.574;9.252;2023-04-03T04:00:24;13.50;99.90
47626;DHT22;33342;45.574;9.252;2023-04-03T04:02:54;13.50;99.90
47626;DHT22;33342;45.574;9.252;2023-04-03T04:05:25;13.40;99.90
47626;DHT22;33342;45.574;9.252;2023-04-03T04:07:53;13.40;99.90
47626;DHT22;33342;45.574;9.252;2023-04-03T04:10:21;13.40;99.90
47626;DHT22;33342;45.574;9.252;2023-04-03T04:12:49;13.50;99.90
47626;DHT22;33342;45.574;9.252;2023-04-03T04:15:21;13.50;99.90
47626;DHT22;33342;45.574;9.252;2023-04-03T04:17:49;13.50;99.90
47626;DHT22;33342;45.574;9.252;2023-04-03T04:20:16;13.50;99.90
47626;DHT22;33342;45.574;9.252;2023-04-03T04:22:43;13.50;99.90
47626;DHT22;33342;45.574;9.252;2023-04-03T04:25:11;13.60;99.90
47626;DHT22;33342;45.574;9.252;2023-04-03T04:27:39;13.60;99.90
47626;DHT22;33342;45.574;9.252;2023-04-03T04:30:07;13.60;99.90
47626;DHT22;33342;45.574;9.252;2023-04-03T04:32:34;13.60;99.90
47626;DHT22;33342;45.574;9.252;2023-04-03T04:35:02;13.50;99.90
47626;DHT22;33342;45.574;9.252;2023-04-03T04:37:32;13.60;99.90
47626;DHT22;33342;45.574;9.252;2023-04-03T04:40:00;13.60;99.90
47626;DHT22;33342;45.574;9.252;2023-04-03T04:42:28;13.60;99.90
47626;DHT22;33342;45.574;9.252;2023-04-03T04:44:55;13.60;99.90
47626;DHT22;33342;45.574;9.252;2023-04-03T04:47:22;13.50;99.90
47626;DHT22;33342;45.574;9.252;2023-04-03T04:49:50;13.60;99.90
47626;DHT22;33342;45.574;9.252;2023-04-03T04:52:17;13.50;99.90
47626;DHT22;33342;45.574;9.252;2023-04-03T04:54:44;13.50;99.90
47626;DHT22;33342;45.574;9.252;2023-04-03T04:57:11;13.50;99.90
47626;DHT22;33342;45.574;9.252;2023-04-03T04:59:39;13.50;99.90
47626;DHT22;33342;45.574;9.252;2023-04-03T05:02:07;13.50;99.90
47626;DHT22;33342;45.574;9.252;2023-04-03T05:04:35;13.50;99.90
47626;DHT22;33342;45.574;9.252;2023-04-03T05:07:08;13.50;99.90
47626;DHT22;33342;45.574;9.252;2023-04-03T05:09:36;13.50;99.90
47626;DHT22;33342;45.574;9.252;2023-04-03T05:12:04;13.50;99.90
47626;DHT22;33342;45.574;9.252;2023-04-03T05:14:37;13.50;99.90
47626;DHT22;33342;45.574;9.252;2023-04-03T05:17:07;13.40;99.90
47626;DHT22;33342;45.574;9.252;2023-04-03T05:19:37;13.40;99.90
47626;DHT22;33342;45.574;9.252;2023-04-03T05:22:06;13.40;99.90
47626;DHT22;33342;45.574;9.252;2023-04-03T05:24:34;13.40;99.90
47626;DHT22;33342;45.574;9.252;2023-04-03T05:27:02;13.40;99.90
47626;DHT22;33342;45.574;9.252;2023-04-03T05:29:30;13.50;99.90
47626;DHT22;33342;45.574;9.252;2023-04-03T05:31:59;13.40;99.90
47626;DHT22;33342;45.574;9.252;2023-04-03T05:34:26;13.40;99.90
47626;DHT22;33342;45.574;9.252;2023-04-03T05:36:55;13.40;99.90
47626;DHT22;33342;45.574;9.252;2023-04-03T05:39:24;13.40;99.90
47626;DHT22;33342;45.574;9.252;2023-04-03T05:41:52;13.40;99.90
47626;DHT22;33342;45.574;9.252;2023-04-03T05:44:19;13.50;99.90
47626;DHT22;33342;45.574;9.252;2023-04-03T05:46:49;13.50;99.90
47626;DHT22;33342;45.574;9.252;2023-04-03T05:49:16;13.50;99.90
47626;DHT22;33342;45.574;9.252;2023-04-03T05:51:43;13.50;99.90
47626;DHT22;33342;45.574;9.252;2023-04-03T05:54:27;13.50;99.90
47626;DHT22;33342;45.574;9.252;2023-04-03T05:57:05;13.50;99.90
47626;DHT22;33342;45.574;9.252;2023-04-03T05:59:32;13.50;99.90
47626;DHT22;33342;45.574;9.252;2023-04-03T06:02:00;13.60;99.90
47626;DHT22;33342;45.574;9.252;2023-04-03T06:04:28;13.60;99.90
47626;DHT22;33342;45.574;9.252;2023-04-03T06:06:57;13.70;99.90
47626;DHT22;33342;45.574;9.252;2023-04-03T06:09:28;13.70;99.90
47626;DHT22;33342;45.574;9.252;2023-04-03T06:11:59;13.70;99.90
47626;DHT22;33342;45.574;9.252;2023-04-03T06:14:27;13.70;99.90
47626;DHT22;33342;45.574;9.252;2023-04-03T06:16:54;13.70;99.90
47626;DHT22;33342;45.574;9.252;2023-04-03T06:19:22;13.70;99.90
47626;DHT22;33342;45.574;9.252;2023-04-03T06:21:53;13.70;99.90
47626;DHT22;33342;45.574;9.252;2023-04-03T06:24:20;13.70;99.90
47626;DHT22;33342;45.574;9.252;2023-04-03T06:26:50;13.70;99.90
47626;DHT22;33342;45.574;9.252;2023-04-03T06:29:20;13.70;99.90
47626;DHT22;33342;45.574;9.252;2023-04-03T06:31:48;13.80;99.90
47626;DHT22;33342;45.574;9.252;2023-04-03T06:34:15;13.80;99.90
47626;DHT22;33342;45.574;9.252;2023-04-03T06:36:44;13.80;99.90
47626;DHT22;33342;45.574;9.252;2023-04-03T06:39:18;13.80;99.90
47626;DHT22;33342;45.574;9.252;2023-04-03T06:41:50;13.80;99.90
47626;DHT22;33342;45.574;9.252;2023-04-03T06:44:24;13.80;99.90
47626;DHT22;33342;45.574;9.252;2023-04-03T06:46:52;13.90;99.90
47626;DHT22;33342;45.574;9.252;2023-04-03T06:49:20;13.90;99.90
47626;DHT22;33342;45.574;9.252;2023-04-03T06:51:48;13.90;99.90
47626;DHT22;33342;45.574;9.252;2023-04-03T06:54:15;13.90;99.90
47626;DHT22;33342;45.574;9.252;2023-04-03T06:56:42;14.00;99.90
47626;DHT22;33342;45.574;9.252;2023-04-03T06:59:10;14.00;99.90
47626;DHT22;33342;45.574;9.252;2023-04-03T07:01:39;14.00;99.90
47626;DHT22;33342;45.574;9.252;2023-04-03T07:04:07;14.10;99.90
47626;DHT22;33342;45.574;9.252;2023-04-03T07:06:35;14.10;99.90
47626;DHT22;33342;45.574;9.252;2023-04-03T07:09:02;14.20;99.90
47626;DHT22;33342;45.574;9.252;2023-04-03T07:11:29;14.20;99.90
47626;DHT22;33342;45.574;9.252;2023-04-03T07:13:57;14.30;99.90
47626;DHT22;33342;45.574;9.252;2023-04-03T07:16:24;14.30;99.90
47626;DHT22;33342;45.574;9.252;2023-04-03T07:18:51;14.30;99.90
47626;DHT22;33342;45.574;9.252;2023-04-03T07:21:19;14.30;99.90
47626;DHT22;33342;45.574;9.252;2023-04-03T07:23:46;14.40;99.90
47626;DHT22;33342;45.574;9.252;2023-04-03T07:26:17;14.40;99.90
47626;DHT22;33342;45.574;9.252;2023-04-03T07:28:44;14.40;99.90
47626;DHT22;33342;45.574;9.252;2023-04-03T07:31:14;14.50;99.90
47626;DHT22;33342;45.574;9.252;2023-04-03T07:33:43;14.50;99.90
47626;DHT22;33342;45.574;9.252;2023-04-03T07:36:11;14.60;99.90
47626;DHT22;33342;45.574;9.252;2023-04-03T07:38:40;14.60;99.90
47626;DHT22;33342;45.574;9.252;2023-04-03T07:41:12;14.60;99.90
47626;DHT22;33342;45.574;9.252;2023-04-03T07:43:40;14.60;99.90
47626;DHT22;33342;45.574;9.252;2023-04-03T07:46:07;14.60;99.90
47626;DHT22;33342;45.574;9.252;2023-04-03T07:48:35;14.70;99.90
47626;DHT22;33342;45.574;9.252;2023-04-03T07:51:03;14.70;99.90
47626;DHT22;33342;45.574;9.252;2023-04-03T07:53:31;14.70;99.90
47626;DHT22;33342;45.574;9.252;2023-04-03T07:55:59;14.70;99.90
47626;DHT22;33342;45.574;9.252;2023-04-03T07:58:26;14.80;99.90
47626;DHT22;33342;45.574;9.252;2023-04-03T08:00:53;14.80;99.90
47626;DHT22;33342;45.574;9.252;2023-04-03T08:03:20;14.80;99.90
47626;DHT22;33342;45.574;9.252;2023-04-03T08:05:49;14.80;99.90
47626;DHT22;33342;45.574;9.252;2023-04-03T08:08:19;14.80;99.90
47626;DHT22;33342;45.574;9.252;2023-04-03T08:10:52;14.80;99.90
47626;DHT22;33342;45.574;9.252;2023-04-03T08:13:20;14.90;99.90
47626;DHT22;33342;45.574;9.252;2023-04-03T08:15:47;14.90;99.90
47626;DHT22;33342;45.574;9.252;2023-04-03T08:18:15;14.90;99.90
47626;DHT22;33342;45.574;9.252;2023-04-03T08:20:43;14.90;99.90
47626;DHT22;33342;45.574;9.252;2023-04-03T08:23:10;15.00;99.90
47626;DHT22;33342;45.574;9.252;2023-04-03T08:25:41;15.00;99.90
47626;DHT22;33342;45.574;9.252;2023-04-03T08:28:09;15.00;99.90
47626;DHT22;33342;45.574;9.252;2023-04-03T08:30:38;15.00;99.90
47626;DHT22;33342;45.574;9.252;2023-04-03T08:33:05;15.00;99.90
47626;DHT22;33342;45.574;9.252;2023-04-03T08:35:32;15.10;99.90
47626;DHT22;33342;45.574;9.252;2023-04-03T08:38:02;15.10;99.90
47626;DHT22;33342;45.574;9.252;2023-04-03T08:40:29;15.10;99.90
47626;DHT22;33342;45.574;9.252;2023-04-03T08:45:46;15.20;99.90
47626;DHT22;33342;45.574;9.252;2023-04-03T08:48:29;15.20;99.90
47626;DHT22;33342;45.574;9.252;2023-04-03T08:51:00;15.20;99.90
47626;DHT22;33342;45.574;9.252;2023-04-03T08:53:34;15.30;99.90
47626;DHT22;33342;45.574;9.252;2023-04-03T08:56:08;15.30;99.90
47626;DHT22;33342;45.574;9.252;2023-04-03T08:58:52;15.30;99.90
47626;DHT22;33342;45.574;9.252;2023-04-03T09:01:36;15.30;99.90
47626;DHT22;33342;45.574;9.252;2023-04-03T09:04:13;15.30;99.90
47626;DHT22;33342;45.574;9.252;2023-04-03T09:06:43;15.30;99.90
47626;DHT22;33342;45.574;9.252;2023-04-03T09:09:35;15.30;99.90
47626;DHT22;33342;45.574;9.252;2023-04-03T09:15:05;15.40;99.90
47626;DHT22;33342;45.574;9.252;2023-04-03T09:17:43;15.40;99.90
47626;DHT22;33342;45.574;9.252;2023-04-03T09:22:57;15.50;99.90
47626;DHT22;33342;45.574;9.252;2023-04-03T09:25:32;15.50;99.90
47626;DHT22;33342;45.574;9.252;2023-04-03T09:28:00;15.50;99.90
47626;DHT22;33342;45.574;9.252;2023-04-03T09:30:28;15.50;99.90
47626;DHT22;33342;45.574;9.252;2023-04-03T09:32:56;15.50;99.90
47626;DHT22;33342;45.574;9.252;2023-04-03T09:40:41;15.60;99.90
47626;DHT22;33342;45.574;9.252;2023-04-03T09:43:30;15.60;99.90
47626;DHT22;33342;45.574;9.252;2023-04-03T09:46:33;15.70;99.90
47626;DHT22;33342;45.574;9.252;2023-04-03T09:49:03;15.70;99.90
47626;DHT22;33342;45.574;9.252;2023-04-03T09:51:36;15.70;99.90
47626;DHT22;33342;45.574;9.252;2023-04-03T09:54:29;15.70;99.90
47626;DHT22;33342;45.574;9.252;2023-04-03T09:57:06;15.70;99.90
47626;DHT22;33342;45.574;9.252;2023-04-03T09:59:34;15.80;99.90
47626;DHT22;33342;45.574;9.252;2023-04-03T10:04:54;15.80;99.90
47626;DHT22;33342;45.574;9.252;2023-04-03T10:07:37;15.90;99.90
47626;DHT22;33342;45.574;9.252;2023-04-03T10:10:21;15.90;99.90
47626;DHT22;33342;45.574;9.252;2023-04-03T10:13:05;15.90;99.90
47626;DHT22;33342;45.574;9.252;2023-04-03T10:15:41;16.00;99.90
47626;DHT22;33342;45.574;9.252;2023-04-03T10:20:54;16.00;99.90
47626;DHT22;33342;45.574;9.252;2023-04-03T10:29:16;16.20;99.90
47626;DHT22;33342;45.574;9.252;2023-04-03T10:32:06;16.20;99.90
47626;DHT22;33342;45.574;9.252;2023-04-03T10:34:42;16.20;99.90
47626;DHT22;33342;45.574;9.252;2023-04-03T10:37:27;16.30;99.90
47626;DHT22;33342;45.574;9.252;2023-04-03T10:40:08;16.30;99.90
47626;DHT22;33342;45.574;9.252;2023-04-03T10:42:42;16.30;99.90
47626;DHT22;33342;45.574;9.252;2023-04-03T10:45:49;16.30;99.90
47626;DHT22;33342;45.574;9.252;2023-04-03T10:51:18;16.50;99.90
47626;DHT22;33342;45.574;9.252;2023-04-03T10:54:10;16.50;99.90
47626;DHT22;33342;45.574;9.252;2023-04-03T10:56:47;16.50;99.90
47626;DHT22;33342;45.574;9.252;2023-04-03T10:59:34;16.60;99.90
47626;DHT22;33342;45.574;9.252;2023-04-03T11:04:45;16.70;99.90
47626;DHT22;33342;45.574;9.252;2023-04-03T11:07:18;16.80;99.90
47626;DHT22;33342;45.574;9.252;2023-04-03T11:09:52;16.80;99.90
47626;DHT22;33342;45.574;9.252;2023-04-03T11:12:39;16.80;99.90
47626;DHT22;33342;45.574;9.252;2023-04-03T11:15:15;16.80;99.90
47626;DHT22;33342;45.574;9.252;2023-04-03T11:20:25;16.90;99.90
47626;DHT22;33342;45.574;9.252;2023-04-03T11:25:46;16.90;99.90
47626;DHT22;33342;45.574;9.252;2023-04-03T11:28:16;16.90;99.90
47626;DHT22;33342;45.574;9.252;2023-04-03T11:33:42;17.00;99.90
47626;DHT22;33342;45.574;9.252;2023-04-03T11:36:32;17.10;99.90
47626;DHT22;33342;45.574;9.252;2023-04-03T11:39:25;17.10;99.90
47626;DHT22;33342;45.574;9.252;2023-04-03T11:41:53;17.10;99.90
47626;DHT22;33342;45.574;9.252;2023-04-03T11:44:38;17.20;99.90
47626;DHT22;33342;45.574;9.252;2023-04-03T11:47:07;17.20;99.90
47626;DHT22;33342;45.574;9.252;2023-04-03T11:50:00;17.20;99.90
47626;DHT22;33342;45.574;9.252;2023-04-03T12:03:30;17.40;99.90
47626;DHT22;33342;45.574;9.252;2023-04-03T12:18:57;17.40;99.90
47626;DHT22;33342;45.574;9.252;2023-04-03T12:22:04;17.40;99.90
47626;DHT22;33342;45.574;9.252;2023-04-03T12:24:25;17.40;99.90
47626;DHT22;33342;45.574;9.252;2023-04-03T12:29:56;17.50;99.90
47626;DHT22;33342;45.574;9.252;2023-04-03T12:40:30;17.60;99.90
47626;DHT22;33342;45.574;9.252;2023-04-03T12:43:17;17.70;99.90
47626;DHT22;33342;45.574;9.252;2023-04-03T12:48:51;17.60;99.90
47626;DHT22;33342;45.574;9.252;2023-04-03T12:51:34;17.60;99.90
47626;DHT22;33342;45.574;9.252;2023-04-03T12:54:04;17.70;99.90
47626;DHT22;33342;45.574;9.252;2023-04-03T12:56:39;17.70;99.90
47626;DHT22;33342;45.574;9.252;2023-04-03T13:01:57;17.80;99.90
47626;DHT22;33342;45.574;9.252;2023-04-03T13:04:26;17.80;99.90
47626;DHT22;33342;45.574;9.252;2023-04-03T13:06:54;17.90;99.90
47626;DHT22;33342;45.574;9.252;2023-04-03T13:09:29;17.90;99.90
47626;DHT22;33342;45.574;9.252;2023-04-03T13:12:02;17.90;99.90
47626;DHT22;33342;45.574;9.252;2023-04-03T13:14:30;18.00;99.90
47626;DHT22;33342;45.574;9.252;2023-04-03T13:17:00;18.00;99.90
47626;DHT22;33342;45.574;9.252;2023-04-03T13:19:30;18.10;99.90
47626;DHT22;33342;45.574;9.252;2023-04-03T13:22:28;18.10;99.90
47626;DHT22;33342;45.574;9.252;2023-04-03T13:24:59;18.10;99.90
47626;DHT22;33342;45.574;9.252;2023-04-03T13:27:30;18.20;99.90
47626;DHT22;33342;45.574;9.252;2023-04-03T13:29:59;18.20;99.90
47626;DHT22;33342;45.574;9.252;2023-04-03T13:32:29;18.20;99.90
47626;DHT22;33342;45.574;9.252;2023-04-03T13:34:56;18.20;99.90
47626;DHT22;33342;45.574;9.252;2023-04-03T13:37:33;18.30;99.90
47626;DHT22;33342;45.574;9.252;2023-04-03T13:42:40;18.40;99.90
47626;DHT22;33342;45.574;9.252;2023-04-03T13:45:30;18.40;99.90
47626;DHT22;33342;45.574;9.252;2023-04-03T13:48:18;18.40;99.90
47626;DHT22;33342;45.574;9.252;2023-04-03T13:53:22;18.60;99.90
47626;DHT22;33342;45.574;9.252;2023-04-03T13:56:16;18.60;99.90
47626;DHT22;33342;45.574;9.252;2023-04-03T13:58:57;18.70;99.90
47626;DHT22;33342;45.574;9.252;2023-04-03T14:01:33;18.80;99.90
47626;DHT22;33342;45.574;9.252;2023-04-03T14:04:11;18.80;99.90
47626;DHT22;33342;45.574;9.252;2023-04-03T14:06:39;18.90;99.90
47626;DHT22;33342;45.574;9.252;2023-04-03T14:09:06;18.90;99.90
47626;DHT22;33342;45.574;9.252;2023-04-03T14:11:34;19.00;99.90
47626;DHT22;33342;45.574;9.252;2023-04-03T14:14:06;19.10;99.90
47626;DHT22;33342;45.574;9.252;2023-04-03T14:16:39;19.20;99.90
47626;DHT22;33342;45.574;9.252;2023-04-03T14:19:17;19.20;99.90
47626;DHT22;33342;45.574;9.252;2023-04-03T14:21:44;19.30;99.90
47626;DHT22;33342;45.574;9.252;2023-04-03T14:24:11;19.40;99.90
47626;DHT22;33342;45.574;9.252;2023-04-03T14:26:39;19.50;99.90
47626;DHT22;33342;45.574;9.252;2023-04-03T14:29:06;19.60;99.90
47626;DHT22;33342;45.574;9.252;2023-04-03T14:31:33;19.60;99.90
47626;DHT22;33342;45.574;9.252;2023-04-03T14:34:00;19.70;99.90
47626;DHT22;33342;45.574;9.252;2023-04-03T14:36:30;19.70;99.90
47626;DHT22;33342;45.574;9.252;2023-04-03T14:38:59;19.80;99.90
47626;DHT22;33342;45.574;9.252;2023-04-03T14:41:26;19.90;99.90
47626;DHT22;33342;45.574;9.252;2023-04-03T14:43:53;19.90;99.90
47626;DHT22;33342;45.574;9.252;2023-04-03T14:46:30;20.00;99.90
47626;DHT22;33342;45.574;9.252;2023-04-03T14:49:15;20.10;99.90
47626;DHT22;33342;45.574;9.252;2023-04-03T14:51:45;20.20;99.90
47626;DHT22;33342;45.574;9.252;2023-04-03T14:54:18;20.30;99.90
47626;DHT22;33342;45.574;9.252;2023-04-03T14:56:47;20.40;99.90
47626;DHT22;33342;45.574;9.252;2023-04-03T14:59:14;20.50;99.90
47626;DHT22;33342;45.574;9.252;2023-04-03T15:01:42;20.60;99.90
47626;DHT22;33342;45.574;9.252;2023-04-03T15:04:12;20.90;99.90
47626;DHT22;33342;45.574;9.252;2023-04-03T15:06:39;21.20;99.90
47626;DHT22;33342;45.574;9.252;2023-04-03T15:09:18;21.70;99.90
47626;DHT22;33342;45.574;9.252;2023-04-03T15:11:46;22.30;99.90
47626;DHT22;33342;45.574;9.252;2023-04-03T15:14:13;23.00;99.90
47626;DHT22;33342;45.574;9.252;2023-04-03T15:16:55;23.70;99.90
47626;DHT22;33342;45.574;9.252;2023-04-03T15:19:23;24.40;99.90
47626;DHT22;33342;45.574;9.252;2023-04-03T15:21:50;24.90;99.90
47626;DHT22;33342;45.574;9.252;2023-04-03T15:24:17;25.50;99.90
47626;DHT22;33342;45.574;9.252;2023-04-03T15:26:44;25.90;99.90
47626;DHT22;33342;45.574;9.252;2023-04-03T15:29:11;26.30;99.90
47626;DHT22;33342;45.574;9.252;2023-04-03T15:31:38;26.70;99.90
47626;DHT22;33342;45.574;9.252;2023-04-03T15:34:05;27.20;99.90
47626;DHT22;33342;45.574;9.252;2023-04-03T15:36:32;27.40;99.90
47626;DHT22;33342;45.574;9.252;2023-04-03T15:39:00;27.70;99.90
47626;DHT22;33342;45.574;9.252;2023-04-03T15:41:27;27.90;99.90
47626;DHT22;33342;45.574;9.252;2023-04-03T15:43:54;27.90;99.90
47626;DHT22;33342;45.574;9.252;2023-04-03T15:46:21;27.80;99.90
47626;DHT22;33342;45.574;9.252;2023-04-03T15:48:49;27.40;99.90
47626;DHT22;33342;45.574;9.252;2023-04-03T15:51:16;26.90;99.90
47626;DHT22;33342;45.574;9.252;2023-04-03T15:53:43;26.20;99.90
47626;DHT22;33342;45.574;9.252;2023-04-03T15:56:10;25.70;99.90
47626;DHT22;33342;45.574;9.252;2023-04-03T15:58:38;25.20;99.90
47626;DHT22;33342;45.574;9.252;2023-04-03T16:01:05;24.60;99.90
47626;DHT22;33342;45.574;9.252;2023-04-03T16:03:33;24.10;99.90
47626;DHT22;33342;45.574;9.252;2023-04-03T16:06:01;23.70;99.90
47626;DHT22;33342;45.574;9.252;2023-04-03T16:08:28;23.40;99.90
47626;DHT22;33342;45.574;9.252;2023-04-03T16:10:55;23.10;99.90
47626;DHT22;33342;45.574;9.252;2023-04-03T16:13:21;23.00;99.90
47626;DHT22;33342;45.574;9.252;2023-04-03T16:15:48;22.90;99.90
47626;DHT22;33342;45.574;9.252;2023-04-03T16:18:16;22.80;99.90
47626;DHT22;33342;45.574;9.252;2023-04-03T16:20:45;22.80;99.90
47626;DHT22;33342;45.574;9.252;2023-04-03T16:23:12;22.80;99.90
47626;DHT22;33342;45.574;9.252;2023-04-03T16:25:39;22.80;99.90
47626;DHT22;33342;45.574;9.252;2023-04-03T16:28:06;22.80;99.90
47626;DHT22;33342;45.574;9.252;2023-04-03T16:30:33;22.80;99.90
47626;DHT22;33342;45.574;9.252;2023-04-03T16:33:01;22.70;99.90
47626;DHT22;33342;45.574;9.252;2023-04-03T16:35:29;22.60;99.90
47626;DHT22;33342;45.574;9.252;2023-04-03T16:37:56;22.50;99.90
47626;DHT22;33342;45.574;9.252;2023-04-03T16:40:23;22.40;99.90
47626;DHT22;33342;45.574;9.252;2023-04-03T16:42:50;22.30;99.90
47626;DHT22;33342;45.574;9.252;2023-04-03T16:45:17;22.20;99.90
47626;DHT22;33342;45.574;9.252;2023-04-03T16:47:44;22.00;99.90
47626;DHT22;33342;45.574;9.252;2023-04-03T16:50:11;21.90;99.90
47626;DHT22;33342;45.574;9.252;2023-04-03T16:52:38;21.80;99.90
47626;DHT22;33342;45.574;9.252;2023-04-03T16:55:06;21.70;99.90
47626;DHT22;33342;45.574;9.252;2023-04-03T16:57:33;21.60;99.90
47626;DHT22;33342;45.574;9.252;2023-04-03T17:00:00;21.50;99.90
47626;DHT22;33342;45.574;9.252;2023-04-03T17:02:27;21.40;99.90
47626;DHT22;33342;45.574;9.252;2023-04-03T17:04:56;21.20;99.90
47626;DHT22;33342;45.574;9.252;2023-04-03T17:07:24;21.10;99.90
47626;DHT22;33342;45.574;9.252;2023-04-03T17:09:52;20.90;99.90
47626;DHT22;33342;45.574;9.252;2023-04-03T17:12:21;20.80;99.90
47626;DHT22;33342;45.574;9.252;2023-04-03T17:14:48;20.60;99.90
47626;DHT22;33342;45.574;9.252;2023-04-03T17:17:17;20.50;99.90
47626;DHT22;33342;45.574;9.252;2023-04-03T17:19:45;20.40;99.90
47626;DHT22;33342;45.574;9.252;2023-04-03T17:22:12;20.30;99.90